Mormon Lake, Arizona
Current Conditions -  °F | °C
As of 8:35 PM on Saturday 22 Nov 2014 (Local Time) from KSEZ Reporting Station
Clear Clear  
Wind Chill: 46°   Ceiling: Unl
Heat Index: 48°   Visibility: 10mi
Dew Point: 23°   Wind: 5mph
Humidity: 37%   Direction: 170°S
Pressure: 30.02"   Gusts: NA
Location:  34.91°N, 111.47°W
Report Text: KSEZ 230335Z AUTO 17004KT 10SM CLR 09/M05 A3002 RMK AO2
Loading
Personal Weather Stations






























Interactive Weather Map New forecast layout! Learn more

10-Day Weather Forecast

Advertisements
Track Severe Weather on mobile